Terminal Aerodrome Forecast
Issued by NWS Norman, OK

Home | Current Version | Previous Version | Text Only | Print | Product List | Glossary On
Versions: 1 2 3 4 5 6 7 8 9 10 11 12
000
FTUS44 KOUN 251721
TAFSPS
TAF
KSPS 251721Z 2518/2618 16012KT P6SM VCSH SCT050 BKN100
      TEMPO 2518/2521 5SM SHRA SCT025 BKN040
     FM252100 17010KT 6SM -SHRA OVC050
     FM260300 07008KT 5SM SHRA OVC025 PROB30 2603/2609 2SM TSRA
      OVC012CB=

USA.gov is the U.S. government's official web portal to all federal, state and local government web resources and services.